Time;durP1;ratioP1;P1;durP2;ratioP2;P2;SDS_P1;SDS_P2;PMS_P1;PMS_P2;Temp;Humidity;BMP_temperature;BMP_pressure;BME280_temperature;BME280_humidity;BME280_pressure;Samples;Min_cycle;Max_cycle;Signal;HPM_P1;HPM_P2
2022/10/16 00:01:40;;;;;;;;;;;;;;;13.72;100.00;100739.16;20650916;28;19936;-64
2022/10/16 00:12:04;;;;;;;;;;;;;;;13.60;100.00;100755.00;20656543;28;19975;-65
2022/10/16 00:22:25;;;;;;;;;;;;;;;13.55;100.00;100747.50;20668588;28;20020;-64
2022/10/16 00:32:47;;;;;;;;;;;;;;;13.57;100.00;100750.00;20671891;28;20021;-64
2022/10/16 00:43:13;;;;;;;;;;;;;;;13.49;100.00;100765.47;20659048;28;19968;-63
2022/10/16 00:53:35;;;;;;;;;;;;;;;13.47;100.00;100776.06;20661195;28;20316;-64
2022/10/16 01:03:56;;;;;;;;;;;;;;;13.28;100.00;100764.50;20738976;28;19933;-64
2022/10/16 01:14:26;;;;;;;;;;;;;;;13.20;100.00;100745.94;20725474;28;19978;-63
2022/10/16 01:24:49;;;;;;;;;;;;;;;13.35;100.00;100757.00;20752501;28;20377;-64
2022/10/16 01:35:10;;;;;;;;;;;;;;;13.23;100.00;100755.34;20739626;28;19937;-64
2022/10/16 01:45:33;;;;;;;;;;;;;;;13.23;100.00;100756.19;20804190;28;19955;-64
2022/10/16 01:55:55;;;;;;;;;;;;;;;13.35;100.00;100767.47;20722744;28;19988;-64
2022/10/16 02:06:16;;;;;;;;;;;;;;;13.38;100.00;100770.72;20722367;28;20385;-64
2022/10/16 02:16:39;;;;;;;;;;;;;;;13.35;100.00;100770.09;20822806;28;19953;-63
2022/10/16 02:27:05;;;;;;;;;;;;;;;13.46;100.00;100770.94;20725818;28;19983;-64
2022/10/16 02:37:27;;;;;;;;;;;;;;;13.41;100.00;100757.38;20716540;28;20003;-64
2022/10/16 02:47:48;;;;;;;;;;;;;;;13.25;100.00;100756.06;20720721;28;19929;-65
2022/10/16 02:58:10;;;;;;;;;;;;;;;13.25;100.00;100764.72;20719073;28;19929;-64
2022/10/16 03:08:31;;;;;;;;;;;;;;;13.18;100.00;100773.16;20754124;28;19930;-64
2022/10/16 03:18:52;;;;;;;;;;;;;;;13.15;100.00;100769.00;20793289;28;19933;-64
2022/10/16 03:29:14;;;;;;;;;;;;;;;13.25;100.00;100769.97;20784935;28;20381;-64
2022/10/16 03:39:35;;;;;;;;;;;;;;;13.36;100.00;100767.38;20721206;27;19930;-64
2022/10/16 03:49:56;;;;;;;;;;;;;;;13.41;100.00;100786.19;20807488;28;19969;-64
2022/10/16 04:00:18;;;;;;;;;;;;;;;13.40;100.00;100794.97;20745557;28;19951;-66
2022/10/16 04:10:39;;;;;;;;;;;;;;;13.40;100.00;100812.50;20753377;28;19926;-65
2022/10/16 04:21:04;;;;;;;;;;;;;;;13.55;100.00;100817.38;20808778;28;20393;-65
2022/10/16 04:31:26;;;;;;;;;;;;;;;13.63;100.00;100812.41;20736162;28;20121;-65
2022/10/16 04:41:47;;;;;;;;;;;;;;;13.60;100.00;100807.38;20832139;28;19933;-65
2022/10/16 04:52:09;;;;;;;;;;;;;;;13.48;100.00;100829.28;20809385;28;19933;-65
2022/10/16 05:02:30;;;;;;;;;;;;;;;13.49;100.00;100846.66;20729404;28;19926;-65
2022/10/16 05:12:52;;;;;;;;;;;;;;;13.56;100.00;100847.84;20755358;28;19925;-65
2022/10/16 05:23:13;;;;;;;;;;;;;;;13.57;100.00;100844.28;20809444;28;19933;-65
2022/10/16 05:33:35;;;;;;;;;;;;;;;13.59;100.00;100848.47;20769448;28;19925;-66
2022/10/16 05:43:56;;;;;;;;;;;;;;;13.57;100.00;100854.75;20750433;28;19941;-65
2022/10/16 05:54:18;;;;;;;;;;;;;;;13.62;100.00;100881.47;20731606;28;19926;-65
2022/10/16 06:04:39;;;;;;;;;;;;;;;13.62;100.00;100898.00;20731562;28;20373;-64
2022/10/16 06:15:01;;;;;;;;;;;;;;;13.44;100.00;100895.13;20723791;28;20284;-64
2022/10/16 06:25:23;;;;;;;;;;;;;;;13.55;100.00;100901.19;20732077;28;19929;-65
2022/10/16 06:35:44;;;;;;;;;;;;;;;13.58;100.00;100916.69;20728077;28;19926;-65
2022/10/16 06:46:07;;;;;;;;;;;;;;;13.63;100.00;100927.66;20797489;28;19929;-65
2022/10/16 06:56:30;;;;;;;;;;;;;;;13.58;100.00;100945.50;20794431;28;19978;-65
2022/10/16 07:06:52;;;;;;;;;;;;;;;13.69;100.00;100962.09;20758819;28;19928;-65
2022/10/16 07:17:13;;;;;;;;;;;;;;;13.78;100.00;100973.66;20758190;28;19938;-65
2022/10/16 07:27:35;;;;;;;;;;;;;;;13.90;100.00;100983.22;20725136;28;19925;-64
2022/10/16 07:38:01;;;;;;;;;;;;;;;14.00;100.00;101000.75;20739451;28;19929;-64
2022/10/16 07:48:23;;;;;;;;;;;;;;;14.18;100.00;101032.63;20736506;28;20374;-64
2022/10/16 07:58:45;;;;;;;;;;;;;;;14.30;100.00;101035.16;20725711;28;19929;-63
2022/10/16 08:09:07;;;;;;;;;;;;;;;14.49;100.00;101062.50;20731522;28;20626;-64
2022/10/16 08:19:30;;;;;;;;;;;;;;;14.88;100.00;101069.88;20783376;27;19932;-63
2022/10/16 08:29:51;;;;;;;;;;;;;;;15.12;100.00;101065.34;20709721;28;19929;-64
2022/10/16 08:40:39;;;;;;;;;;;;;;;15.21;100.00;101069.84;20803931;28;19929;-64
2022/10/16 08:51:01;;;;;;;;;;;;;;;15.55;99.74;101082.00;20735034;28;19944;-64
2022/10/16 09:01:23;;;;;;;;;;;;;;;15.40;98.85;101095.50;20733942;28;20057;-64
2022/10/16 09:11:48;;;;;;;;;;;;;;;15.37;99.76;101107.13;20735901;28;19929;-64
2022/10/16 09:22:14;;;;;;;;;;;;;;;15.45;98.95;101123.94;20734547;28;19933;-64
2022/10/16 09:32:35;;;;;;;;;;;;;;;15.64;97.96;101134.66;20762320;28;19978;-64
2022/10/16 09:43:01;;;;;;;;;;;;;;;15.81;96.66;101147.25;20730191;28;19934;-65
2022/10/16 09:53:22;;;;;;;;;;;;;;;16.10;93.36;101168.56;20753764;28;20010;-64
2022/10/16 10:03:44;;;;;;;;;;;;;;;16.37;91.47;101182.09;20727971;28;19979;-64
2022/10/16 10:14:15;;;;;;;;;;;;;;;16.57;90.05;101182.13;20754541;28;19986;-65
2022/10/16 10:24:37;;;;;;;;;;;;;;;16.43;88.98;101199.06;20729502;28;20330;-65
2022/10/16 10:35:11;;;;;;;;;;;;;;;16.57;86.92;101222.44;20731287;28;19929;-64
2022/10/16 10:45:41;;;;;;;;;;;;;;;16.72;86.48;101221.19;20712383;28;19990;-65
2022/10/16 10:56:17;;;;;;;;;;;;;;;16.87;83.51;101235.69;20722488;28;19925;-64
2022/10/16 11:06:41;;;;;;;;;;;;;;;17.20;82.15;101237.25;20792512;28;19929;-64
2022/10/16 11:17:08;;;;;;;;;;;;;;;17.36;80.24;101241.13;20752869;28;19929;-65
2022/10/16 11:27:37;;;;;;;;;;;;;;;17.39;77.72;101254.03;20794160;28;19929;-64
2022/10/16 11:38:02;;;;;;;;;;;;;;;17.73;74.83;101268.63;20747132;28;19926;-64
2022/10/16 11:48:24;;;;;;;;;;;;;;;17.59;73.15;101284.81;20707117;28;19985;-65
2022/10/16 11:58:48;;;;;;;;;;;;;;;17.85;71.43;101299.19;20738320;28;19933;-63
2022/10/16 12:09:21;;;;;;;;;;;;;;;17.89;67.61;101311.97;20731937;28;20002;-65
2022/10/16 12:19:42;;;;;;;;;;;;;;;17.99;69.00;101322.56;20715740;28;19960;-64
2022/10/16 12:30:06;;;;;;;;;;;;;;;18.11;68.48;101347.88;20790035;28;20357;-64
2022/10/16 12:40:27;;;;;;;;;;;;;;;17.87;67.69;101355.31;20758261;28;19933;-64
2022/10/16 12:50:48;;;;;;;;;;;;;;;17.62;68.54;101371.53;20754599;28;20564;-64
2022/10/16 13:01:30;;;;;;;;;;;;;;;17.94;65.54;101361.72;20723817;28;19974;-64
2022/10/16 13:12:01;;;;;;;;;;;;;;;18.06;64.04;101381.75;20732036;28;19925;-64
2022/10/16 13:22:35;;;;;;;;;;;;;;;18.06;65.80;101387.03;20761330;28;20487;-64
2022/10/16 13:33:02;;;;;;;;;;;;;;;17.98;66.29;101400.06;20762606;28;19986;-64
2022/10/16 13:43:26;;;;;;;;;;;;;;;18.02;65.03;101414.66;20756545;28;19926;-65
2022/10/16 13:53:47;;;;;;;;;;;;;;;18.02;67.16;101433.16;20711776;28;19925;-65
2022/10/16 14:04:10;;;;;;;;;;;;;;;18.05;66.41;101443.41;20747913;28;19929;-64
2022/10/16 14:14:35;;;;;;;;;;;;;;;18.08;66.72;101453.72;20740203;28;19937;-64
2022/10/16 14:24:56;;;;;;;;;;;;;;;18.13;65.78;101475.28;20763203;28;19926;-64
2022/10/16 14:35:44;;;;;;;;;;;;;;;17.95;65.43;101468.91;20736211;28;20691;-63
2022/10/16 14:46:13;;;;;;;;;;;;;;;18.04;65.37;101468.16;20752467;28;19925;-64
2022/10/16 14:56:50;;;;;;;;;;;;;;;17.85;65.93;101478.59;20768253;28;21352;-63
2022/10/16 15:07:11;;;;;;;;;;;;;;;17.76;67.12;101500.44;20760765;28;19978;-64
2022/10/16 15:17:32;;;;;;;;;;;;;;;17.55;70.97;101499.59;20752262;28;19947;-63
2022/10/16 15:27:54;;;;;;;;;;;;;;;17.47;71.70;101520.47;20740000;28;19985;-63
2022/10/16 15:38:16;;;;;;;;;;;;;;;17.23;73.56;101522.44;20747225;27;19929;-63
2022/10/16 15:48:38;;;;;;;;;;;;;;;16.88;76.55;101513.06;20732055;28;19929;-64
2022/10/16 15:58:59;;;;;;;;;;;;;;;16.52;81.77;101524.69;20803395;28;19987;-64
2022/10/16 16:09:21;;;;;;;;;;;;;;;16.25;83.50;101535.66;20736640;28;19986;-64
2022/10/16 16:19:42;;;;;;;;;;;;;;;15.98;85.65;101543.03;20739215;28;19933;-64
2022/10/16 16:30:06;;;;;;;;;;;;;;;15.75;86.37;101557.03;20748514;28;19987;-64
2022/10/16 16:40:28;;;;;;;;;;;;;;;15.42;90.20;101575.28;20753797;28;20070;-64
2022/10/16 16:50:49;;;;;;;;;;;;;;;15.42;86.90;101591.06;20741678;28;20301;-64
2022/10/16 17:01:10;;;;;;;;;;;;;;;15.16;91.33;101599.91;20726131;28;20239;-64
2022/10/16 17:11:42;;;;;;;;;;;;;;;15.04;93.51;101613.09;20733557;28;19965;-64
2022/10/16 17:22:04;;;;;;;;;;;;;;;14.76;92.78;101627.28;20730428;28;19925;-64
2022/10/16 17:32:26;;;;;;;;;;;;;;;14.72;93.11;101636.31;20746710;28;19934;-64
2022/10/16 17:42:47;;;;;;;;;;;;;;;14.58;96.13;101644.28;20743797;28;19925;-64
2022/10/16 17:53:09;;;;;;;;;;;;;;;14.46;96.51;101660.88;20720942;28;20458;-64
2022/10/16 18:03:30;;;;;;;;;;;;;;;14.33;97.57;101663.59;20727795;28;19926;-64
2022/10/16 18:13:52;;;;;;;;;;;;;;;14.29;98.03;101677.84;20732983;28;19926;-64
2022/10/16 18:24:14;;;;;;;;;;;;;;;14.18;98.71;101686.44;20764074;28;19925;-64
2022/10/16 18:34:36;;;;;;;;;;;;;;;13.99;100.00;101685.03;20739738;28;19929;-64
2022/10/16 18:44:58;;;;;;;;;;;;;;;13.87;100.00;101705.06;20727274;28;19925;-64
2022/10/16 18:55:20;;;;;;;;;;;;;;;13.81;100.00;101712.47;20752686;28;19951;-64
2022/10/16 19:05:45;;;;;;;;;;;;;;;13.81;100.00;101729.03;20839759;28;19978;-64
2022/10/16 19:16:14;;;;;;;;;;;;;;;13.76;100.00;101711.91;20736937;28;20427;-64
2022/10/16 19:26:42;;;;;;;;;;;;;;;13.79;100.00;101701.25;20743983;28;19932;-64
2022/10/16 19:37:03;;;;;;;;;;;;;;;13.71;100.00;101701.72;20744532;27;19954;-65
2022/10/16 19:47:24;;;;;;;;;;;;;;;13.57;100.00;101714.00;20800628;28;19929;-64
2022/10/16 19:57:46;;;;;;;;;;;;;;;13.72;100.00;101728.75;20749673;28;20336;-64
2022/10/16 20:08:08;;;;;;;;;;;;;;;13.75;100.00;101739.06;20745007;28;20347;-64
2022/10/16 20:18:29;;;;;;;;;;;;;;;13.77;100.00;101758.97;20731427;28;20390;-64
2022/10/16 20:28:52;;;;;;;;;;;;;;;13.76;100.00;101764.31;20769967;28;20403;-64
2022/10/16 20:39:13;;;;;;;;;;;;;;;13.74;100.00;101753.09;20720924;28;19972;-64
2022/10/16 20:49:34;;;;;;;;;;;;;;;13.72;100.00;101770.69;20734889;28;19982;-64
2022/10/16 21:00:01;;;;;;;;;;;;;;;13.73;100.00;101778.47;20720083;28;20293;-64
2022/10/16 21:10:23;;;;;;;;;;;;;;;13.70;100.00;101775.19;20753713;28;19974;-64
2022/10/16 21:20:44;;;;;;;;;;;;;;;13.67;100.00;101768.34;20754288;28;19983;-64
2022/10/16 21:31:13;;;;;;;;;;;;;;;13.52;100.00;101758.00;20753096;28;19925;-64
2022/10/16 21:41:35;;;;;;;;;;;;;;;13.60;100.00;101766.22;20718723;28;19997;-64
2022/10/16 21:51:56;;;;;;;;;;;;;;;13.49;100.00;101758.19;20744989;28;19933;-63
2022/10/16 22:02:18;;;;;;;;;;;;;;;13.35;100.00;101729.38;20712353;28;19926;-63
2022/10/16 22:12:39;;;;;;;;;;;;;;;13.29;100.00;101724.50;20735023;28;20328;-62
2022/10/16 22:23:00;;;;;;;;;;;;;;;12.75;100.00;101646.69;20733624;28;19982;-63
2022/10/16 22:33:22;;;;;;;;;;;;;;;12.66;100.00;101618.47;20802593;28;19986;-62
2022/10/16 22:43:44;;;;;;;;;;;;;;;12.57;100.00;101612.97;20725838;28;19929;-63
2022/10/16 22:54:06;;;;;;;;;;;;;;;12.54;100.00;101589.59;20757073;28;19974;-63
2022/10/16 23:04:27;;;;;;;;;;;;;;;12.58;100.00;101601.56;20791289;28;19925;-63
2022/10/16 23:14:48;;;;;;;;;;;;;;;12.56;100.00;101585.94;20796279;28;19926;-63
2022/10/16 23:25:10;;;;;;;;;;;;;;;12.26;100.00;101570.41;20718480;28;19933;-62
2022/10/16 23:35:31;;;;;;;;;;;;;;;12.40;100.00;101542.53;20754947;28;19933;-63
2022/10/16 23:45:52;;;;;;;;;;;;;;;12.48;100.00;101555.13;20785653;28;19950;-63
2022/10/16 23:56:14;;;;;;;;;;;;;;;12.55;100.00;101557.28;20754473;28;19967;-63
